レイキャビク/ケフラヴィーク の空港の天気 - METARとTAF

ケフラヴィーク国際空港 ( BIKF / KEF ) - アイスランド ケプラヴィーク
飛行場実況気象(Metar)
観測時間08/13 21:00 GMT (08/13 21:00 UTC)
風向・風速南南東 3m/s
視程10km以上
天気現象
少しの雲 雲底高度 610m
全天の8割程度の雲 雲底高度 1340m
気温10℃
湿度82%
気圧1009hPa
METARBIKF 132100Z 15006KT 9999 FEW020 BKN044 10/07 Q1009
過去の天気等 Google飛行場航空写真 Wunderground天気予報

過去48時間のMETAR

飛行場予報(TAF)
発表時間: 8/13 19:52 GMT (8/13 19:52 UTC)
予報対象時間: 13日21時 GMT ~ 14日21時 GMT
風向・風速南 5m/s
視程10km以上
全天の4割程度の雲 雲底高度 460m
全天の8割程度の雲 雲底高度 760m
13日21時 GMT ~ 14日12時 GMT に 確率 40% で一時的に
視程6000m
天気現象しゅう雨
全天の8割程度の雲 雲底高度 370m
14日11時 GMT ~ 14日13時 GMT に徐々に
風向・風速北 5m/s
TAF BIKF 131952Z 1321/1421 18010KT 9999 SCT015 BKN025 TX12/1416Z TN06/1406Z
PROB40 TEMPO 1321/1412 6000 SHRA BKN012
BECMG 1411/1413 35010KT